createdAt,value
2018-02-11T00:00:58.507Z,81.60
2018-02-11T00:03:26.059Z,82.00
2018-02-11T00:05:53.656Z,81.80
2018-02-11T00:08:21.268Z,81.70
2018-02-11T00:10:48.884Z,81.50
2018-02-11T00:13:16.449Z,81.30
2018-02-11T00:15:44.160Z,81.60
2018-02-11T00:18:11.768Z,81.50
2018-02-11T00:20:39.322Z,81.50
2018-02-11T00:23:10.697Z,81.60
2018-02-11T00:25:38.292Z,81.50
2018-02-11T00:28:05.883Z,81.20
2018-02-11T00:30:33.442Z,81.30
2018-02-11T00:33:01.032Z,81.10
2018-02-11T00:35:28.593Z,81.30
2018-02-11T00:38:01.760Z,81.30
2018-02-11T00:40:29.360Z,81.40
2018-02-11T00:42:56.976Z,81.40
2018-02-11T00:45:24.592Z,81.10
2018-02-11T00:47:52.909Z,80.80
2018-02-11T00:50:21.273Z,80.60
2018-02-11T00:52:48.855Z,80.40
2018-02-11T00:55:16.457Z,80.70
2018-02-11T00:57:44.052Z,80.70
2018-02-11T01:00:11.646Z,80.50
2018-02-11T01:02:39.228Z,80.40
2018-02-11T01:05:06.810Z,80.50
2018-02-11T01:07:34.425Z,80.60
2018-02-11T01:10:02.009Z,80.80
2018-02-11T01:12:29.591Z,80.10
2018-02-11T01:14:57.184Z,79.90
2018-02-11T01:17:24.835Z,80.00
2018-02-11T01:19:52.488Z,80.20
2018-02-11T01:22:20.860Z,80.30
2018-02-11T01:24:48.420Z,80.20
2018-02-11T01:27:15.992Z,80.10
2018-02-11T01:29:44.332Z,79.60
2018-02-11T01:32:11.941Z,79.60
2018-02-11T01:34:40.257Z,79.30
2018-02-11T01:37:07.811Z,79.20
2018-02-11T01:39:35.416Z,78.70
2018-02-11T01:42:02.989Z,78.60
2018-02-11T01:44:31.360Z,78.00
2018-02-11T01:46:58.911Z,78.00
2018-02-11T01:49:26.502Z,78.70
2018-02-11T01:51:54.856Z,78.20
2018-02-11T01:54:22.466Z,78.10
2018-02-11T01:56:50.088Z,78.00
2018-02-11T01:59:17.644Z,78.20
2018-02-11T02:01:45.240Z,78.10
2018-02-11T02:04:12.837Z,77.70
2018-02-11T02:06:40.381Z,77.70
2018-02-11T02:09:07.981Z,77.70
2018-02-11T02:11:37.686Z,77.60
2018-02-11T02:14:07.511Z,77.50
2018-02-11T02:16:37.250Z,77.90
2018-02-11T02:19:06.698Z,77.60
2018-02-11T02:21:36.068Z,77.50
2018-02-11T02:24:05.560Z,77.30
2018-02-11T02:26:35.907Z,77.10
2018-02-11T02:29:05.136Z,77.10
2018-02-11T02:31:32.774Z,77.30
2018-02-11T02:34:00.361Z,77.40
2018-02-11T02:36:27.920Z,77.60
2018-02-11T02:38:55.535Z,77.50
2018-02-11T02:41:23.860Z,77.70
2018-02-11T02:43:51.464Z,77.70
2018-02-11T02:46:19.794Z,77.90
2018-02-11T02:48:47.407Z,77.90
2018-02-11T02:51:15.744Z,77.60
2018-02-11T02:53:43.313Z,77.60
2018-02-11T02:56:10.928Z,77.70
2018-02-11T02:58:38.480Z,78.20
2018-02-11T03:01:06.086Z,78.20
2018-02-11T03:03:33.705Z,78.30
2018-02-11T03:06:01.297Z,78.10
2018-02-11T03:08:28.908Z,78.30
2018-02-11T03:10:57.267Z,77.80
2018-02-11T03:13:24.867Z,77.70
2018-02-11T03:15:53.175Z,77.70
2018-02-11T03:18:20.736Z,77.60
2018-02-11T03:20:48.343Z,77.50
2018-02-11T03:23:15.891Z,77.30
2018-02-11T03:25:43.449Z,77.40
2018-02-11T03:28:11.086Z,77.30
2018-02-11T03:30:38.656Z,76.60
2018-02-11T03:33:06.244Z,76.50
2018-02-11T03:35:33.811Z,75.90
2018-02-11T03:38:02.171Z,75.30
2018-02-11T03:40:29.789Z,75.30
2018-02-11T03:42:57.363Z,74.50
2018-02-11T03:45:25.681Z,74.40
2018-02-11T03:47:53.296Z,74.40
2018-02-11T03:50:20.845Z,73.60
2018-02-11T03:52:48.442Z,73.80
2018-02-11T03:55:16.001Z,73.60
2018-02-11T03:57:43.607Z,73.40
2018-02-11T04:00:11.952Z,73.80
2018-02-11T04:02:39.588Z,73.80
2018-02-11T04:05:07.188Z,73.80
2018-02-11T04:07:34.780Z,73.90
2018-02-11T04:10:02.343Z,74.10
2018-02-11T04:12:29.909Z,73.70
2018-02-11T04:14:57.528Z,73.60
2018-02-11T04:17:25.133Z,73.60
2018-02-11T04:19:52.701Z,73.40
2018-02-11T04:22:20.303Z,73.60
2018-02-11T04:24:47.903Z,73.70
2018-02-11T04:27:15.567Z,73.60
2018-02-11T04:29:43.245Z,73.90
2018-02-11T04:32:10.817Z,74.00
2018-02-11T04:34:38.471Z,73.70
2018-02-11T04:37:06.034Z,73.70
2018-02-11T04:39:33.616Z,73.40
2018-02-11T04:42:01.172Z,72.90
2018-02-11T04:44:28.726Z,72.80
2018-02-11T04:46:56.336Z,72.70
2018-02-11T04:49:23.936Z,72.70
2018-02-11T04:51:51.496Z,73.10
2018-02-11T04:54:19.086Z,72.80
2018-02-11T04:56:46.686Z,72.60
2018-02-11T04:59:14.253Z,72.30
2018-02-11T05:01:41.877Z,72.60
2018-02-11T05:04:09.477Z,72.20
2018-02-11T05:06:37.084Z,72.00
2018-02-11T05:09:04.650Z,72.60
2018-02-11T05:11:32.261Z,71.80
2018-02-11T05:14:00.584Z,72.50
2018-02-11T05:16:28.180Z,71.90
2018-02-11T05:18:55.775Z,72.10
2018-02-11T05:21:24.132Z,71.80
2018-02-11T05:23:52.478Z,71.70
2018-02-11T05:26:20.086Z,71.70
2018-02-11T05:28:47.637Z,71.60
2018-02-11T05:31:16.020Z,70.50
2018-02-11T05:33:44.344Z,70.20
2018-02-11T05:36:11.921Z,70.20
2018-02-11T05:38:39.529Z,69.90
2018-02-11T05:41:07.854Z,69.60
2018-02-11T05:43:35.421Z,69.60
2018-02-11T05:46:03.024Z,69.70
2018-02-11T05:48:31.333Z,69.60
2018-02-11T05:50:58.912Z,69.60
2018-02-11T05:53:26.471Z,69.70
2018-02-11T05:55:54.155Z,69.60
2018-02-11T05:58:21.718Z,69.80
2018-02-11T06:00:49.308Z,69.60
2018-02-11T06:03:17.668Z,69.90
2018-02-11T06:05:45.292Z,69.90
2018-02-11T06:08:12.864Z,69.90
2018-02-11T06:10:40.421Z,69.90
2018-02-11T06:13:08.026Z,69.70
2018-02-11T06:15:35.588Z,69.90
2018-02-11T06:18:03.957Z,69.30
2018-02-11T06:20:31.545Z,69.90
2018-02-11T06:22:59.129Z,68.90
2018-02-11T06:25:26.684Z,68.80
2018-02-11T06:27:54.280Z,68.00
2018-02-11T06:30:21.823Z,68.10
2018-02-11T06:32:49.367Z,68.30
2018-02-11T06:35:16.986Z,67.90
2018-02-11T06:37:44.536Z,67.70
2018-02-11T06:40:12.096Z,67.70
2018-02-11T06:42:39.717Z,67.90
2018-02-11T06:45:07.291Z,67.50
2018-02-11T06:47:34.891Z,67.40
2018-02-11T06:50:02.465Z,67.60
2018-02-11T06:52:30.793Z,67.30
2018-02-11T06:54:58.390Z,67.30
2018-02-11T06:57:25.980Z,66.60
2018-02-11T06:59:53.577Z,66.80
2018-02-11T07:02:21.194Z,66.70
2018-02-11T07:04:49.508Z,66.70
2018-02-11T07:07:17.054Z,66.70
2018-02-11T07:09:44.643Z,66.60
2018-02-11T07:12:12.213Z,66.50
2018-02-11T07:14:39.829Z,66.40
2018-02-11T07:17:07.381Z,66.20
2018-02-11T07:19:35.745Z,66.10
2018-02-11T07:22:04.069Z,65.60
2018-02-11T07:24:31.631Z,65.70
2018-02-11T07:26:59.224Z,65.80
2018-02-11T07:29:26.829Z,66.20
2018-02-11T07:31:54.376Z,65.70
2018-02-11T07:34:22.690Z,65.40
2018-02-11T07:36:50.281Z,65.50
2018-02-11T07:39:17.853Z,66.10
2018-02-11T07:41:45.404Z,67.20
2018-02-11T07:44:13.031Z,68.00
2018-02-11T07:46:40.669Z,68.50
2018-02-11T07:49:09.030Z,67.70
2018-02-11T07:51:37.356Z,68.00
2018-02-11T07:54:04.958Z,68.00
2018-02-11T07:56:32.516Z,67.40
2018-02-11T07:59:00.124Z,66.90
2018-02-11T08:01:28.445Z,66.10
2018-02-11T08:03:56.047Z,66.20
2018-02-11T08:06:23.662Z,65.80
2018-02-11T08:08:51.224Z,65.30
2018-02-11T08:11:18.808Z,64.80
2018-02-11T08:13:46.351Z,64.30
2018-02-11T08:16:13.947Z,64.50
2018-02-11T08:18:42.267Z,63.70
2018-02-11T08:21:09.857Z,63.60
2018-02-11T08:23:37.452Z,63.20
2018-02-11T08:26:05.004Z,63.50
2018-02-11T08:28:33.385Z,63.50
2018-02-11T08:31:01.745Z,62.20
2018-02-11T08:33:29.340Z,62.20
2018-02-11T08:35:56.897Z,62.00
2018-02-11T08:38:24.495Z,61.90
2018-02-11T08:40:52.076Z,61.90
2018-02-11T08:43:19.678Z,61.50
2018-02-11T08:45:48.052Z,61.20
2018-02-11T08:48:16.389Z,61.00
2018-02-11T08:50:44.011Z,61.00
2018-02-11T08:53:11.551Z,60.80
2018-02-11T08:55:39.923Z,62.00
2018-02-11T08:58:08.270Z,61.00
2018-02-11T09:00:35.847Z,60.90
2018-02-11T09:03:03.411Z,61.50
2018-02-11T09:05:31.019Z,61.50
2018-02-11T09:07:58.597Z,62.00
2018-02-11T09:10:26.197Z,61.80
2018-02-11T09:12:53.756Z,62.10
2018-02-11T09:15:21.341Z,62.00
2018-02-11T09:17:49.717Z,61.90
2018-02-11T09:20:18.033Z,62.20
2018-02-11T09:22:45.593Z,62.10
2018-02-11T09:25:13.191Z,62.40
2018-02-11T09:27:41.571Z,64.60
2018-02-11T09:30:09.184Z,64.70
2018-02-11T09:32:36.717Z,65.30
2018-02-11T09:35:05.079Z,64.90
2018-02-11T09:37:32.742Z,65.00
2018-02-11T09:40:00.383Z,64.20
2018-02-11T09:42:27.972Z,64.30
2018-02-11T09:44:56.299Z,64.70
2018-02-11T09:47:24.640Z,63.90
2018-02-11T09:49:53.019Z,63.60
2018-02-11T09:52:21.344Z,63.70
2018-02-11T09:54:48.947Z,63.70
2018-02-11T09:57:16.535Z,63.80
2018-02-11T09:59:44.130Z,64.30
2018-02-11T10:02:12.483Z,65.20
2018-02-11T10:04:40.100Z,65.30
2018-02-11T10:07:08.484Z,65.40
2018-02-11T10:09:36.105Z,65.40
2018-02-11T10:12:03.701Z,66.80
2018-02-11T10:14:31.264Z,67.20
2018-02-11T10:16:58.894Z,67.90
2018-02-11T10:19:26.498Z,68.10
2018-02-11T10:21:54.853Z,67.20
2018-02-11T10:24:22.456Z,67.20
2018-02-11T10:26:50.816Z,66.10
2018-02-11T10:29:18.400Z,66.10
2018-02-11T10:31:46.725Z,65.70
2018-02-11T10:34:14.356Z,65.70
2018-02-11T10:36:41.924Z,65.60
2018-02-11T10:39:09.515Z,65.30
2018-02-11T10:41:37.137Z,65.20
2018-02-11T10:44:04.694Z,66.00
2018-02-11T10:46:32.279Z,65.00
2018-02-11T10:48:59.847Z,65.00
2018-02-11T10:51:27.481Z,65.40
2018-02-11T10:53:55.041Z,66.20
2018-02-11T10:56:22.627Z,67.20
2018-02-11T10:58:50.172Z,68.00
2018-02-11T11:01:17.791Z,70.30
2018-02-11T11:03:45.372Z,72.60
2018-02-11T11:06:13.683Z,73.80
2018-02-11T11:08:41.326Z,73.80
2018-02-11T11:11:08.916Z,74.50
2018-02-11T11:13:36.474Z,74.30
2018-02-11T11:16:04.186Z,72.70
2018-02-11T11:18:32.513Z,72.40
2018-02-11T11:21:00.119Z,72.40
2018-02-11T11:23:27.783Z,71.90
2018-02-11T11:25:55.383Z,72.50
2018-02-11T11:28:22.932Z,72.20
2018-02-11T11:30:51.291Z,72.60
2018-02-11T11:33:19.645Z,72.70
2018-02-11T11:35:51.067Z,72.60
2018-02-11T11:38:19.459Z,73.20
2018-02-11T11:40:47.036Z,72.60
2018-02-11T11:43:14.668Z,72.70
2018-02-11T11:45:42.218Z,73.00
2018-02-11T11:48:09.774Z,72.60
2018-02-11T11:50:37.400Z,72.80
2018-02-11T11:53:05.019Z,73.20
2018-02-11T11:55:32.592Z,72.70
2018-02-11T11:58:00.245Z,72.60
2018-02-11T12:00:27.878Z,72.90
2018-02-11T12:02:55.464Z,73.30
2018-02-11T12:05:23.055Z,73.90
2018-02-11T12:07:50.655Z,73.80
2018-02-11T12:10:19.007Z,73.00
2018-02-11T12:12:46.626Z,72.90
2018-02-11T12:15:14.190Z,72.80
2018-02-11T12:17:41.788Z,73.20
2018-02-11T12:20:10.130Z,72.60
2018-02-11T12:22:37.692Z,72.60
2018-02-11T12:25:05.311Z,72.40
2018-02-11T12:27:33.675Z,72.70
2018-02-11T12:30:02.048Z,73.00
2018-02-11T12:32:29.635Z,73.00
2018-02-11T12:34:57.972Z,73.70
2018-02-11T12:37:25.520Z,73.70
2018-02-11T12:39:53.127Z,74.50
2018-02-11T12:42:21.496Z,75.00
2018-02-11T12:44:49.058Z,75.00
2018-02-11T12:47:16.638Z,74.40
2018-02-11T12:49:44.985Z,74.30
2018-02-11T12:52:12.540Z,74.30
2018-02-11T12:54:40.124Z,75.00
2018-02-11T12:57:08.448Z,75.20
2018-02-11T12:59:36.071Z,75.10
2018-02-11T13:02:04.430Z,74.60
2018-02-11T13:04:32.008Z,74.60
2018-02-11T13:06:59.576Z,75.00
2018-02-11T13:09:27.946Z,76.80
2018-02-11T13:11:56.285Z,76.80
2018-02-11T13:14:23.874Z,76.80
2018-02-11T13:16:52.263Z,76.60
2018-02-11T13:19:20.646Z,76.40
2018-02-11T13:21:49.079Z,76.40
2018-02-11T13:24:16.676Z,76.70
2018-02-11T13:26:44.284Z,76.60
2018-02-11T13:29:11.849Z,76.30
2018-02-11T13:31:39.444Z,76.50
2018-02-11T13:34:07.854Z,76.00
2018-02-11T13:36:36.183Z,75.60
2018-02-11T13:39:03.738Z,75.60
2018-02-11T13:41:31.330Z,75.00
2018-02-11T13:43:58.897Z,74.90
2018-02-11T13:46:26.498Z,74.20
2018-02-11T13:48:54.080Z,74.50
2018-02-11T13:51:21.687Z,74.30
2018-02-11T13:53:50.045Z,73.70
2018-02-11T13:56:17.644Z,73.70
2018-02-11T13:58:45.996Z,74.50
2018-02-11T14:01:13.624Z,74.50
2018-02-11T14:03:41.200Z,74.00
2018-02-11T14:06:08.791Z,73.90
2018-02-11T14:08:37.155Z,74.20
2018-02-11T14:11:04.737Z,74.20
2018-02-11T14:13:32.297Z,74.20
2018-02-11T14:16:00.750Z,75.60
2018-02-11T14:18:28.318Z,75.60
2018-02-11T14:20:55.882Z,75.50
2018-02-11T14:23:23.491Z,75.00
2018-02-11T14:25:51.045Z,74.30
2018-02-11T14:28:18.651Z,74.70
2018-02-11T14:30:46.209Z,74.70
2018-02-11T14:33:13.797Z,74.60
2018-02-11T14:35:41.405Z,75.30
2018-02-11T14:38:09.025Z,75.30
2018-02-11T14:40:36.590Z,75.30
2018-02-11T14:43:04.154Z,74.70
2018-02-11T14:45:32.555Z,76.20
2018-02-11T14:48:00.870Z,75.70
2018-02-11T14:50:28.480Z,75.60
2018-02-11T14:52:56.096Z,75.70
2018-02-11T14:55:23.749Z,76.20
2018-02-11T14:57:51.338Z,76.40
2018-02-11T15:00:19.686Z,76.90
2018-02-11T15:02:47.305Z,76.90
2018-02-11T15:05:14.884Z,76.40
2018-02-11T15:07:42.473Z,76.30
2018-02-11T15:10:10.054Z,75.90
2018-02-11T15:12:37.664Z,76.40
2018-02-11T15:15:05.259Z,76.30
2018-02-11T15:17:32.850Z,76.50
2018-02-11T15:20:00.453Z,76.60
2018-02-11T15:22:28.006Z,76.40
2018-02-11T15:24:56.369Z,76.60
2018-02-11T15:27:24.700Z,77.00
2018-02-11T15:29:52.240Z,77.00
2018-02-11T15:32:19.829Z,77.10
2018-02-11T15:34:47.393Z,76.80
2018-02-11T15:37:14.986Z,76.50
2018-02-11T15:39:43.368Z,76.80
2018-02-11T15:42:11.724Z,76.70
2018-02-11T15:44:39.317Z,76.70
2018-02-11T15:47:07.672Z,76.90
2018-02-11T15:49:36.104Z,76.60
2018-02-11T15:52:03.698Z,76.50
2018-02-11T15:54:31.252Z,76.70
2018-02-11T15:56:58.868Z,76.50
2018-02-11T15:59:26.506Z,76.60
2018-02-11T16:01:54.056Z,76.70
2018-02-11T16:04:21.604Z,76.70
2018-02-11T16:06:49.209Z,76.70
2018-02-11T16:09:17.594Z,77.00
2018-02-11T16:11:45.204Z,76.90
2018-02-11T16:14:12.763Z,78.10
2018-02-11T16:16:40.376Z,79.10
2018-02-11T16:19:07.949Z,79.90
2018-02-11T16:21:35.532Z,80.20
2018-02-11T16:24:03.091Z,80.40
2018-02-11T16:26:30.726Z,81.60
2018-02-11T16:28:58.295Z,82.00
2018-02-11T16:31:26.930Z,81.80
2018-02-11T16:33:54.493Z,81.70
2018-02-11T16:36:22.040Z,82.20
2018-02-11T16:38:49.627Z,82.40
2018-02-11T16:41:17.200Z,82.50
2018-02-11T16:43:45.585Z,82.50
2018-02-11T16:46:13.136Z,82.50
2018-02-11T16:48:41.496Z,82.10
2018-02-11T16:51:09.078Z,82.10
2018-02-11T16:53:37.492Z,81.40
2018-02-11T16:56:05.844Z,81.60
2018-02-11T16:58:34.205Z,80.70
2018-02-11T17:01:01.782Z,80.70
2018-02-11T17:03:30.174Z,80.70
2018-02-11T17:05:57.738Z,80.70
2018-02-11T17:08:25.304Z,80.70
2018-02-11T17:10:52.890Z,80.70
2018-02-11T17:13:20.499Z,80.70
2018-02-11T17:15:48.833Z,80.80
2018-02-11T17:18:16.411Z,80.60
2018-02-11T17:20:44.013Z,80.70
2018-02-11T17:23:12.421Z,81.00
2018-02-11T17:25:40.009Z,80.80
2018-02-11T17:28:07.597Z,80.90
2018-02-11T17:30:35.188Z,80.80
2018-02-11T17:33:02.816Z,80.80
2018-02-11T17:35:30.400Z,80.90
2018-02-11T17:37:58.764Z,81.10
2018-02-11T17:40:27.094Z,81.20
2018-02-11T17:42:54.724Z,81.20
2018-02-11T17:45:23.052Z,80.70
2018-02-11T17:47:50.619Z,80.60
2018-02-11T17:50:18.234Z,81.00
2018-02-11T17:52:45.920Z,80.80
2018-02-11T17:55:13.512Z,80.70
2018-02-11T17:57:41.072Z,80.50
2018-02-11T18:00:08.676Z,80.30
2018-02-11T18:02:36.249Z,80.70
2018-02-11T18:05:03.805Z,80.40
2018-02-11T18:07:31.384Z,80.70
2018-02-11T18:09:59.762Z,80.60
2018-02-11T18:12:27.312Z,80.60
2018-02-11T18:14:54.918Z,80.50
2018-02-11T18:17:22.475Z,80.40
2018-02-11T18:19:50.103Z,80.40
2018-02-11T18:22:18.476Z,80.60
2018-02-11T18:24:46.027Z,80.60
2018-02-11T18:27:13.684Z,80.70
2018-02-11T18:29:42.039Z,80.80
2018-02-11T18:32:09.604Z,80.80
2018-02-11T18:34:37.159Z,80.90
2018-02-11T18:37:04.767Z,81.10
2018-02-11T18:39:32.329Z,80.90
2018-02-11T18:41:59.884Z,81.30
2018-02-11T18:44:27.476Z,81.20
2018-02-11T18:46:55.032Z,81.40
2018-02-11T18:49:22.630Z,81.30
2018-02-11T18:51:50.967Z,81.10
2018-02-11T18:54:18.568Z,81.10
2018-02-11T18:56:46.888Z,81.40
2018-02-11T18:59:14.475Z,82.00
2018-02-11T19:01:42.074Z,81.60
2018-02-11T19:04:10.446Z,81.90
2018-02-11T19:06:38.764Z,81.90
2018-02-11T19:09:06.316Z,81.90
2018-02-11T19:11:33.980Z,81.80
2018-02-11T19:14:01.547Z,82.00
2018-02-11T19:16:29.176Z,82.00
2018-02-11T19:18:56.781Z,82.20
2018-02-11T19:21:24.368Z,82.20
2018-02-11T19:23:51.927Z,82.30
2018-02-11T19:26:19.528Z,82.30
2018-02-11T19:28:47.843Z,82.20
2018-02-11T19:31:15.531Z,82.20
2018-02-11T19:33:43.093Z,82.20
2018-02-11T19:36:10.636Z,82.10
2018-02-11T19:38:38.232Z,82.00
2018-02-11T19:41:05.776Z,81.60
2018-02-11T19:43:33.327Z,81.60
2018-02-11T19:46:00.920Z,81.80
2018-02-11T19:48:29.249Z,82.10
2018-02-11T19:50:56.852Z,82.10
2018-02-11T19:53:24.439Z,82.20
2018-02-11T19:55:52.072Z,82.80
2018-02-11T19:58:19.699Z,82.30
2018-02-11T20:00:49.401Z,82.00
2018-02-11T20:03:17.012Z,81.70
2018-02-11T20:05:44.577Z,81.70
2018-02-11T20:08:12.163Z,82.30
2018-02-11T20:10:39.729Z,82.30
2018-02-11T20:13:07.319Z,82.10
2018-02-11T20:15:34.913Z,82.00
2018-02-11T20:18:02.500Z,81.90
2018-02-11T20:20:30.896Z,81.50
2018-02-11T20:22:58.465Z,81.50
2018-02-11T20:25:26.052Z,81.40
2018-02-11T20:27:53.662Z,81.70
2018-02-11T20:30:21.979Z,81.70
2018-02-11T20:32:50.296Z,81.80
2018-02-11T20:35:17.923Z,81.80
2018-02-11T20:37:45.593Z,81.60
2018-02-11T20:40:13.228Z,81.70
2018-02-11T20:42:40.788Z,81.60
2018-02-11T20:45:08.363Z,81.10
2018-02-11T20:47:35.908Z,81.40
2018-02-11T20:50:03.479Z,81.10
2018-02-11T20:52:31.064Z,81.20
2018-02-11T20:54:58.663Z,81.30
2018-02-11T20:57:27.040Z,81.00
2018-02-11T20:59:55.360Z,80.60
2018-02-11T21:02:26.428Z,80.50
2018-02-11T21:04:54.055Z,80.50
2018-02-11T21:07:21.630Z,80.50
2018-02-11T21:09:49.228Z,81.00
2018-02-11T21:12:16.855Z,80.70
2018-02-11T21:14:44.455Z,80.70
2018-02-11T21:17:12.021Z,80.00
2018-02-11T21:19:40.360Z,80.40
2018-02-11T21:22:07.967Z,80.30
2018-02-11T21:24:35.556Z,80.30
2018-02-11T21:27:03.146Z,80.50
2018-02-11T21:29:30.709Z,81.00
2018-02-11T21:31:58.288Z,81.30
2018-02-11T21:34:25.900Z,81.40
2018-02-11T21:36:53.484Z,81.50
2018-02-11T21:39:21.032Z,81.70
2018-02-11T21:41:48.679Z,81.60
2018-02-11T21:44:16.540Z,81.70
2018-02-11T21:46:44.854Z,81.90
2018-02-11T21:49:12.444Z,81.90
2018-02-11T21:51:40.001Z,81.80
2018-02-11T21:54:07.600Z,81.70
2018-02-11T21:56:35.929Z,82.00
2018-02-11T21:59:03.577Z,82.00
2018-02-11T22:01:31.123Z,81.80
2018-02-11T22:03:58.680Z,81.70
2018-02-11T22:06:26.304Z,81.50
2018-02-11T22:08:53.889Z,81.40
2018-02-11T22:11:21.516Z,81.70
2018-02-11T22:13:49.073Z,81.80
2018-02-11T22:16:16.673Z,81.80
2018-02-11T22:18:44.231Z,82.00
2018-02-11T22:21:12.549Z,82.20
2018-02-11T22:23:40.174Z,82.20
2018-02-11T22:26:07.748Z,82.20
2018-02-11T22:28:35.343Z,82.00
2018-02-11T22:31:02.914Z,81.70
2018-02-11T22:33:30.506Z,81.40
2018-02-11T22:35:58.842Z,81.20
2018-02-11T22:38:26.499Z,81.10
2018-02-11T22:40:54.073Z,81.00
2018-02-11T22:43:21.658Z,81.00
2018-02-11T22:45:49.281Z,81.40
2018-02-11T22:48:16.856Z,81.20
2018-02-11T22:50:44.456Z,81.00
2018-02-11T22:53:12.813Z,81.10
2018-02-11T22:55:40.403Z,81.10
2018-02-11T22:58:07.999Z,81.50
2018-02-11T23:00:35.608Z,81.30
2018-02-11T23:03:03.182Z,81.20
2018-02-11T23:05:30.787Z,81.10
2018-02-11T23:07:58.360Z,81.40
2018-02-11T23:10:25.962Z,81.70
2018-02-11T23:12:54.281Z,82.20
2018-02-11T23:15:21.844Z,82.20
2018-02-11T23:17:49.419Z,83.20
2018-02-11T23:20:16.975Z,83.50
2018-02-11T23:22:44.561Z,83.40
2018-02-11T23:25:12.166Z,83.80
2018-02-11T23:27:39.756Z,83.80
2018-02-11T23:30:07.336Z,83.60
2018-02-11T23:32:34.917Z,83.40
2018-02-11T23:35:02.539Z,83.40
2018-02-11T23:37:30.096Z,83.30
2018-02-11T23:39:57.684Z,83.20
2018-02-11T23:42:25.298Z,82.60
2018-02-11T23:44:52.861Z,82.90
2018-02-11T23:47:20.468Z,83.30
2018-02-11T23:49:48.044Z,82.70
2018-02-11T23:52:15.640Z,82.30
2018-02-11T23:54:43.247Z,81.90
2018-02-11T23:57:10.816Z,81.80
2018-02-11T23:59:38.387Z,81.30
